sensor_id;sensor_type;location;lat;lon;timestamp;pressure;altitude;pressure_sealevel;temperature;humidity
73692;BME280;61996;49.910;35.562;2022-12-18T00:00:41;99030.06;;;20.78;42.46
73692;BME280;61996;49.910;35.562;2022-12-18T00:03:44;99028.22;;;20.70;42.38
73692;BME280;61996;49.910;35.562;2022-12-18T00:06:47;99028.56;;;20.67;42.72
73692;BME280;61996;49.910;35.562;2022-12-18T00:09:50;99044.91;;;20.64;42.46
73692;BME280;61996;49.910;35.562;2022-12-18T00:12:53;99056.59;;;20.55;42.65
73692;BME280;61996;49.910;35.562;2022-12-18T00:16:00;99054.75;;;20.56;42.63
73692;BME280;61996;49.910;35.562;2022-12-18T00:19:03;99072.13;;;20.51;42.80
73692;BME280;61996;49.910;35.562;2022-12-18T00:22:07;99072.78;;;20.45;42.73
73692;BME280;61996;49.910;35.562;2022-12-18T00:25:09;99086.41;;;20.42;42.65
73692;BME280;61996;49.910;35.562;2022-12-18T00:28:12;99092.75;;;20.41;42.72
73692;BME280;61996;49.910;35.562;2022-12-18T00:31:18;99091.06;;;20.32;42.71
73692;BME280;61996;49.910;35.562;2022-12-18T00:34:21;99099.38;;;20.29;42.76
73692;BME280;61996;49.910;35.562;2022-12-18T00:37:24;99111.22;;;20.26;42.85
73692;BME280;61996;49.910;35.562;2022-12-18T00:40:27;99111.69;;;20.22;42.82
73692;BME280;61996;49.910;35.562;2022-12-18T00:43:30;99121.53;;;20.21;42.53
73692;BME280;61996;49.910;35.562;2022-12-18T00:46:36;99132.56;;;20.18;42.79
73692;BME280;61996;49.910;35.562;2022-12-18T00:49:39;99135.69;;;20.14;42.90
73692;BME280;61996;49.910;35.562;2022-12-18T00:52:42;99140.53;;;20.10;42.76
73692;BME280;61996;49.910;35.562;2022-12-18T00:55:45;99138.38;;;20.14;42.84
73692;BME280;61996;49.910;35.562;2022-12-18T00:58:48;99147.16;;;20.06;42.72
73692;BME280;61996;49.910;35.562;2022-12-18T01:01:52;99156.19;;;20.05;42.93
73692;BME280;61996;49.910;35.562;2022-12-18T01:04:55;99158.84;;;20.05;42.89
73692;BME280;61996;49.910;35.562;2022-12-18T01:07:58;99164.97;;;19.97;43.02
73692;BME280;61996;49.910;35.562;2022-12-18T01:11:06;99173.16;;;19.96;42.84
73692;BME280;61996;49.910;35.562;2022-12-18T01:14:13;99179.78;;;19.92;42.86
73692;BME280;61996;49.910;35.562;2022-12-18T01:17:17;99185.78;;;19.94;42.90
73692;BME280;61996;49.910;35.562;2022-12-18T01:20:20;99192.28;;;19.91;42.82
73692;BME280;61996;49.910;35.562;2022-12-18T01:23:22;99195.78;;;19.92;42.73
73692;BME280;61996;49.910;35.562;2022-12-18T01:26:27;99189.78;;;19.90;42.65
73692;BME280;61996;49.910;35.562;2022-12-18T01:29:31;99193.28;;;19.90;42.60
73692;BME280;61996;49.910;35.562;2022-12-18T01:32:35;99187.25;;;19.88;42.78
73692;BME280;61996;49.910;35.562;2022-12-18T01:35:40;99193.75;;;19.86;42.80
73692;BME280;61996;49.910;35.562;2022-12-18T01:38:43;99197.25;;;19.86;42.93
73692;BME280;61996;49.910;35.562;2022-12-18T01:41:45;99208.59;;;19.88;42.74
73692;BME280;61996;49.910;35.562;2022-12-18T01:45:06;99209.75;;;19.86;42.59
73692;BME280;61996;49.910;35.562;2022-12-18T01:48:26;99207.09;;;19.86;42.66
73692;BME280;61996;49.910;35.562;2022-12-18T01:51:29;99204.41;;;19.86;42.50
73692;BME280;61996;49.910;35.562;2022-12-18T01:54:32;99210.75;;;19.85;42.63
73692;BME280;61996;49.910;35.562;2022-12-18T01:57:35;99220.75;;;19.83;42.62
73692;BME280;61996;49.910;35.562;2022-12-18T02:00:38;99219.69;;;19.76;42.65
73692;BME280;61996;49.910;35.562;2022-12-18T02:03:43;99223.88;;;19.78;42.53
73692;BME280;61996;49.910;35.562;2022-12-18T02:06:46;99218.53;;;19.78;42.65
73692;BME280;61996;49.910;35.562;2022-12-18T02:09:54;99214.66;;;19.73;42.68
73692;BME280;61996;49.910;35.562;2022-12-18T02:13:01;99211.19;;;19.80;42.46
73692;BME280;61996;49.910;35.562;2022-12-18T02:16:06;99220.22;;;19.79;42.86
73692;BME280;61996;49.910;35.562;2022-12-18T02:19:19;99226.31;;;19.71;42.81
73692;BME280;61996;49.910;35.562;2022-12-18T02:22:26;99225.31;;;19.73;42.87
73692;BME280;61996;49.910;35.562;2022-12-18T02:25:39;99234.31;;;19.71;42.79
73692;BME280;61996;49.910;35.562;2022-12-18T02:28:45;99243.16;;;19.72;42.96
73692;BME280;61996;49.910;35.562;2022-12-18T02:31:50;99246.00;;;19.70;43.03
73692;BME280;61996;49.910;35.562;2022-12-18T02:34:55;99253.59;;;19.83;42.60
73692;BME280;61996;49.910;35.562;2022-12-18T02:37:58;99254.00;;;19.70;43.18
73692;BME280;61996;49.910;35.562;2022-12-18T02:41:02;99255.97;;;19.68;43.40
73692;BME280;61996;49.910;35.562;2022-12-18T02:44:08;99263.59;;;19.63;43.43
73692;BME280;61996;49.910;35.562;2022-12-18T02:47:11;99271.88;;;19.60;43.51
73692;BME280;61996;49.910;35.562;2022-12-18T02:50:16;99270.22;;;19.59;43.46
73692;BME280;61996;49.910;35.562;2022-12-18T02:53:23;99273.88;;;19.58;43.35
73692;BME280;61996;49.910;35.562;2022-12-18T02:56:28;99282.88;;;19.57;43.44
73692;BME280;61996;49.910;35.562;2022-12-18T02:59:37;99289.19;;;19.56;43.34
73692;BME280;61996;49.910;35.562;2022-12-18T03:02:43;99287.06;;;19.60;43.22
73692;BME280;61996;49.910;35.562;2022-12-18T03:05:49;99291.19;;;19.72;42.76
73692;BME280;61996;49.910;35.562;2022-12-18T03:08:54;99296.75;;;19.79;42.70
73692;BME280;61996;49.910;35.562;2022-12-18T03:12:01;99301.31;;;19.86;42.54
73692;BME280;61996;49.910;35.562;2022-12-18T03:15:25;99307.28;;;19.98;42.18
73692;BME280;61996;49.910;35.562;2022-12-18T03:18:30;99306.66;;;20.04;42.05
73692;BME280;61996;49.910;35.562;2022-12-18T03:21:37;99317.38;;;20.12;41.91
73692;BME280;61996;49.910;35.562;2022-12-18T03:24:41;99318.06;;;20.14;41.91
73692;BME280;61996;49.910;35.562;2022-12-18T03:27:45;99318.84;;;20.24;41.63
73692;BME280;61996;49.910;35.562;2022-12-18T03:30:51;99326.34;;;20.29;41.55
73692;BME280;61996;49.910;35.562;2022-12-18T03:33:55;99338.72;;;20.30;41.51
73692;BME280;61996;49.910;35.562;2022-12-18T03:37:00;99329.56;;;20.33;41.52
73692;BME280;61996;49.910;35.562;2022-12-18T03:40:06;99337.25;;;20.36;41.38
73692;BME280;61996;49.910;35.562;2022-12-18T03:43:11;99342.44;;;20.37;41.34
73692;BME280;61996;49.910;35.562;2022-12-18T03:46:24;99332.97;;;20.43;41.29
73692;BME280;61996;49.910;35.562;2022-12-18T03:49:30;99337.63;;;20.41;41.32
73692;BME280;61996;49.910;35.562;2022-12-18T03:52:35;99346.56;;;20.49;41.07
73692;BME280;61996;49.910;35.562;2022-12-18T03:55:39;99347.72;;;20.47;41.31
73692;BME280;61996;49.910;35.562;2022-12-18T03:58:42;99351.41;;;20.46;41.20
73692;BME280;61996;49.910;35.562;2022-12-18T04:01:49;99361.47;;;20.52;41.25
73692;BME280;61996;49.910;35.562;2022-12-18T04:04:54;99360.47;;;20.53;41.16
73692;BME280;61996;49.910;35.562;2022-12-18T04:08:00;99360.47;;;20.53;41.22
73692;BME280;61996;49.910;35.562;2022-12-18T04:11:03;99362.13;;;20.54;41.22
73692;BME280;61996;49.910;35.562;2022-12-18T04:14:06;99370.16;;;20.54;41.14
73692;BME280;61996;49.910;35.562;2022-12-18T04:17:16;99369.81;;;20.57;41.04
73692;BME280;61996;49.910;35.562;2022-12-18T04:20:18;99369.53;;;20.60;41.14
73692;BME280;61996;49.910;35.562;2022-12-18T04:23:21;99367.53;;;20.62;40.93
73692;BME280;61996;49.910;35.562;2022-12-18T04:26:24;99382.56;;;20.63;40.96
73692;BME280;61996;49.910;35.562;2022-12-18T04:29:27;99383.09;;;20.67;40.84
73692;BME280;61996;49.910;35.562;2022-12-18T04:32:32;99399.97;;;20.67;40.77
73692;BME280;61996;49.910;35.562;2022-12-18T04:35:35;99404.31;;;20.68;40.88
73692;BME280;61996;49.910;35.562;2022-12-18T04:38:38;99410.34;;;20.70;40.81
73692;BME280;61996;49.910;35.562;2022-12-18T04:41:41;99404.00;;;20.71;40.89
73692;BME280;61996;49.910;35.562;2022-12-18T04:44:43;99413.72;;;20.72;40.75
73692;BME280;61996;49.910;35.562;2022-12-18T04:47:48;99419.56;;;20.76;40.67
73692;BME280;61996;49.910;35.562;2022-12-18T04:50:50;99428.75;;;20.73;40.74
73692;BME280;61996;49.910;35.562;2022-12-18T04:53:53;99429.25;;;20.77;40.82
73692;BME280;61996;49.910;35.562;2022-12-18T04:56:56;99430.09;;;20.77;40.59
73692;BME280;61996;49.910;35.562;2022-12-18T04:59:59;99434.31;;;20.80;40.62
73692;BME280;61996;49.910;35.562;2022-12-18T05:03:03;99440.31;;;20.82;40.69
73692;BME280;61996;49.910;35.562;2022-12-18T05:06:06;99443.84;;;20.83;40.70
73692;BME280;61996;49.910;35.562;2022-12-18T05:09:09;99449.19;;;20.83;40.60
73692;BME280;61996;49.910;35.562;2022-12-18T05:12:13;99455.38;;;20.83;40.65
73692;BME280;61996;49.910;35.562;2022-12-18T05:15:16;99457.88;;;20.85;40.60
73692;BME280;61996;49.910;35.562;2022-12-18T05:18:20;99458.72;;;20.85;40.62
73692;BME280;61996;49.910;35.562;2022-12-18T05:21:23;99468.56;;;20.85;40.86
73692;BME280;61996;49.910;35.562;2022-12-18T05:24:25;99467.13;;;20.90;40.51
73692;BME280;61996;49.910;35.562;2022-12-18T05:27:28;99473.91;;;20.85;40.49
73692;BME280;61996;49.910;35.562;2022-12-18T05:30:31;99480.81;;;20.87;40.66
73692;BME280;61996;49.910;35.562;2022-12-18T05:33:35;99493.16;;;20.88;40.47
73692;BME280;61996;49.910;35.562;2022-12-18T05:36:39;99504.03;;;20.87;40.61
73692;BME280;61996;49.910;35.562;2022-12-18T05:39:42;99495.16;;;20.86;40.71
73692;BME280;61996;49.910;35.562;2022-12-18T05:42:45;99516.06;;;20.91;40.60
73692;BME280;61996;49.910;35.562;2022-12-18T05:45:48;99517.72;;;20.92;40.56
73692;BME280;61996;49.910;35.562;2022-12-18T05:48:52;99515.78;;;20.94;40.35
73692;BME280;61996;49.910;35.562;2022-12-18T05:51:55;99526.13;;;20.97;40.32
73692;BME280;61996;49.910;35.562;2022-12-18T05:54:57;99539.66;;;20.95;40.60
73692;BME280;61996;49.910;35.562;2022-12-18T05:58:01;99542.19;;;20.97;40.26
73692;BME280;61996;49.910;35.562;2022-12-18T06:01:08;99542.19;;;20.97;40.34
73692;BME280;61996;49.910;35.562;2022-12-18T06:04:13;99555.53;;;20.97;40.33
73692;BME280;61996;49.910;35.562;2022-12-18T06:07:16;99567.47;;;21.02;40.19
73692;BME280;61996;49.910;35.562;2022-12-18T06:10:18;99563.94;;;21.02;40.23
73692;BME280;61996;49.910;35.562;2022-12-18T06:13:21;99562.41;;;20.99;40.28
73692;BME280;61996;49.910;35.562;2022-12-18T06:16:24;99567.63;;;21.01;40.30
73692;BME280;61996;49.910;35.562;2022-12-18T06:19:29;99568.47;;;21.01;40.44
73692;BME280;61996;49.910;35.562;2022-12-18T06:22:31;99578.16;;;21.02;40.22
73692;BME280;61996;49.910;35.562;2022-12-18T06:25:36;99580.66;;;21.04;40.10
73692;BME280;61996;49.910;35.562;2022-12-18T06:28:39;99587.84;;;21.03;40.06
73692;BME280;61996;49.910;35.562;2022-12-18T06:31:42;99588.53;;;21.05;40.01
73692;BME280;61996;49.910;35.562;2022-12-18T06:34:46;99593.03;;;21.05;40.03
73692;BME280;61996;49.910;35.562;2022-12-18T06:37:49;99611.91;;;21.03;39.96
73692;BME280;61996;49.910;35.562;2022-12-18T06:40:52;99599.38;;;21.04;40.26
73692;BME280;61996;49.910;35.562;2022-12-18T06:43:55;99607.13;;;21.07;40.01
73692;BME280;61996;49.910;35.562;2022-12-18T06:47:00;99600.91;;;21.06;40.03
73692;BME280;61996;49.910;35.562;2022-12-18T06:50:05;99597.38;;;21.06;39.90
73692;BME280;61996;49.910;35.562;2022-12-18T06:53:08;99618.09;;;21.04;40.05
73692;BME280;61996;49.910;35.562;2022-12-18T06:56:11;99621.09;;;21.01;39.98
73692;BME280;61996;49.910;35.562;2022-12-18T06:59:13;99626.88;;;20.96;40.35
73692;BME280;61996;49.910;35.562;2022-12-18T07:02:17;99627.50;;;20.90;40.39
73692;BME280;61996;49.910;35.562;2022-12-18T07:05:21;99633.59;;;20.83;40.44
73692;BME280;61996;49.910;35.562;2022-12-18T07:08:24;99632.09;;;20.80;40.45
73692;BME280;61996;49.910;35.562;2022-12-18T07:11:27;99635.72;;;20.79;40.51
73692;BME280;61996;49.910;35.562;2022-12-18T07:14:29;99637.88;;;20.75;40.53
73692;BME280;61996;49.910;35.562;2022-12-18T07:17:32;99643.38;;;20.74;40.84
73692;BME280;61996;49.910;35.562;2022-12-18T07:20:36;99655.19;;;20.71;40.72
73692;BME280;61996;49.910;35.562;2022-12-18T07:23:39;99669.69;;;20.69;40.71
73692;BME280;61996;49.910;35.562;2022-12-18T07:26:45;99675.47;;;20.64;40.79
73692;BME280;61996;49.910;35.562;2022-12-18T07:29:48;99683.13;;;20.59;40.86
73692;BME280;61996;49.910;35.562;2022-12-18T07:32:51;99684.97;;;20.59;40.92
73692;BME280;61996;49.910;35.562;2022-12-18T07:35:55;99699.25;;;20.67;40.83
73692;BME280;61996;49.910;35.562;2022-12-18T07:38:57;99700.25;;;20.66;40.90
73692;BME280;61996;49.910;35.562;2022-12-18T07:42:00;99699.09;;;20.69;40.82
73692;BME280;61996;49.910;35.562;2022-12-18T07:45:21;99708.75;;;20.79;40.34
73692;BME280;61996;49.910;35.562;2022-12-18T07:48:24;99700.75;;;20.79;40.31
73692;BME280;61996;49.910;35.562;2022-12-18T07:51:29;99698.44;;;20.85;40.28
73692;BME280;61996;49.910;35.562;2022-12-18T07:54:31;99698.84;;;20.90;40.29
73692;BME280;61996;49.910;35.562;2022-12-18T07:57:34;99703.03;;;20.92;40.16
73692;BME280;61996;49.910;35.562;2022-12-18T08:01:01;99709.22;;;20.93;40.24
73692;BME280;61996;49.910;35.562;2022-12-18T08:04:04;99724.13;;;20.95;39.95
73692;BME280;61996;49.910;35.562;2022-12-18T08:07:09;99724.97;;;20.96;39.95
73692;BME280;61996;49.910;35.562;2022-12-18T08:10:11;99731.00;;;20.98;39.88
73692;BME280;61996;49.910;35.562;2022-12-18T08:13:14;99736.06;;;21.01;39.97
73692;BME280;61996;49.910;35.562;2022-12-18T08:16:17;99724.53;;;21.00;39.72
73692;BME280;61996;49.910;35.562;2022-12-18T08:19:21;99728.16;;;20.99;39.81
73692;BME280;61996;49.910;35.562;2022-12-18T08:22:25;99728.16;;;20.99;39.75
73692;BME280;61996;49.910;35.562;2022-12-18T08:25:28;99720.16;;;20.99;39.84
73692;BME280;61996;49.910;35.562;2022-12-18T08:28:31;99733.50;;;20.99;39.81
73692;BME280;61996;49.910;35.562;2022-12-18T08:31:33;99729.56;;;21.03;39.77
73692;BME280;61996;49.910;35.562;2022-12-18T08:34:36;99734.91;;;21.03;39.66
73692;BME280;61996;49.910;35.562;2022-12-18T08:37:40;99739.94;;;21.06;39.73
73692;BME280;61996;49.910;35.562;2022-12-18T08:40:44;99739.94;;;21.06;39.57
73692;BME280;61996;49.910;35.562;2022-12-18T08:43:46;99740.81;;;21.07;39.58
73692;BME280;61996;49.910;35.562;2022-12-18T08:47:07;99742.63;;;21.06;39.51
73692;BME280;61996;49.910;35.562;2022-12-18T08:50:11;99740.41;;;21.20;40.01
73692;BME280;61996;49.910;35.562;2022-12-18T08:53:15;99751.66;;;21.23;39.65
73692;BME280;61996;49.910;35.562;2022-12-18T08:56:19;99756.38;;;21.12;39.86
73692;BME280;61996;49.910;35.562;2022-12-18T08:59:21;99738.22;;;21.15;39.69
73692;BME280;61996;49.910;35.562;2022-12-18T09:02:25;99739.06;;;21.16;40.00
73692;BME280;61996;49.910;35.562;2022-12-18T09:05:28;99741.19;;;21.12;39.71
73692;BME280;61996;49.910;35.562;2022-12-18T09:08:32;99738.22;;;21.15;39.38
73692;BME280;61996;49.910;35.562;2022-12-18T09:11:38;99740.91;;;21.15;39.50
73692;BME280;61996;49.910;35.562;2022-12-18T09:14:41;99743.41;;;21.17;39.65
73692;BME280;61996;49.910;35.562;2022-12-18T09:17:43;99760.28;;;21.17;39.66
73692;BME280;61996;49.910;35.562;2022-12-18T09:20:47;99747.59;;;21.19;39.47
73692;BME280;61996;49.910;35.562;2022-12-18T09:23:54;99748.59;;;21.18;39.43
73692;BME280;61996;49.910;35.562;2022-12-18T09:26:57;99756.78;;;21.17;39.40
73692;BME280;61996;49.910;35.562;2022-12-18T09:30:00;99762.13;;;21.17;39.40
73692;BME280;61996;49.910;35.562;2022-12-18T09:33:03;99756.94;;;21.15;39.53
73692;BME280;61996;49.910;35.562;2022-12-18T09:36:08;99755.09;;;21.16;39.51
73692;BME280;61996;49.910;35.562;2022-12-18T09:39:12;99748.59;;;21.18;39.28
73692;BME280;61996;49.910;35.562;2022-12-18T09:42:17;99763.97;;;21.16;39.50
73692;BME280;61996;49.910;35.562;2022-12-18T09:45:22;99763.97;;;21.16;39.59
73692;BME280;61996;49.910;35.562;2022-12-18T09:48:25;99767.47;;;21.17;39.40
73692;BME280;61996;49.910;35.562;2022-12-18T09:51:32;99770.00;;;21.18;39.28
73692;BME280;61996;49.910;35.562;2022-12-18T09:54:38;99767.03;;;21.21;39.30
73692;BME280;61996;49.910;35.562;2022-12-18T09:57:45;99772.38;;;21.21;39.13
73692;BME280;61996;49.910;35.562;2022-12-18T10:00:51;99777.03;;;21.19;39.37
73692;BME280;61996;49.910;35.562;2022-12-18T10:03:54;99777.56;;;21.23;39.21
73692;BME280;61996;49.910;35.562;2022-12-18T10:06:58;99774.75;;;21.24;39.14
73692;BME280;61996;49.910;35.562;2022-12-18T10:10:13;99784.75;;;21.22;39.10
73692;BME280;61996;49.910;35.562;2022-12-18T10:13:20;99779.25;;;21.24;39.14
73692;BME280;61996;49.910;35.562;2022-12-18T10:16:26;99782.63;;;21.26;38.99
73692;BME280;61996;49.910;35.562;2022-12-18T10:19:37;99781.78;;;21.25;39.15
73692;BME280;61996;49.910;35.562;2022-12-18T10:22:44;99789.97;;;21.24;39.21
73692;BME280;61996;49.910;35.562;2022-12-18T10:25:51;99792.31;;;21.27;39.10
73692;BME280;61996;49.910;35.562;2022-12-18T10:28:57;99793.16;;;21.27;38.81
73692;BME280;61996;49.910;35.562;2022-12-18T10:32:06;99798.81;;;21.24;39.13
73692;BME280;61996;49.910;35.562;2022-12-18T10:35:11;99801.50;;;21.24;38.94
73692;BME280;61996;49.910;35.562;2022-12-18T10:38:22;99802.34;;;21.25;39.04
73692;BME280;61996;49.910;35.562;2022-12-18T10:41:26;99806.53;;;21.27;38.98
73692;BME280;61996;49.910;35.562;2022-12-18T10:44:30;99806.53;;;21.27;38.97
73692;BME280;61996;49.910;35.562;2022-12-18T10:47:32;99804.44;;;21.31;38.96
73692;BME280;61996;49.910;35.562;2022-12-18T10:50:36;99802.91;;;21.28;38.91
73692;BME280;61996;49.910;35.562;2022-12-18T10:54:00;99799.66;;;21.25;39.15
73692;BME280;61996;49.910;35.562;2022-12-18T10:57:16;99810.09;;;21.28;39.00
73692;BME280;61996;49.910;35.562;2022-12-18T11:00:25;99811.03;;;21.27;39.13
73692;BME280;61996;49.910;35.562;2022-12-18T11:03:30;99820.22;;;21.24;39.09
73692;BME280;61996;49.910;35.562;2022-12-18T11:06:34;99817.13;;;21.29;38.94
73692;BME280;61996;49.910;35.562;2022-12-18T11:09:59;99818.97;;;21.28;38.92
73692;BME280;61996;49.910;35.562;2022-12-18T11:13:10;99814.72;;;21.26;38.96
73692;BME280;61996;49.910;35.562;2022-12-18T11:16:17;99821.50;;;21.30;38.80
73692;BME280;61996;49.910;35.562;2022-12-18T11:19:23;99818.97;;;21.28;38.93
73692;BME280;61996;49.910;35.562;2022-12-18T11:22:29;99822.16;;;21.32;38.80
73692;BME280;61996;49.910;35.562;2022-12-18T11:25:35;99822.31;;;21.30;38.84
73692;BME280;61996;49.910;35.562;2022-12-18T11:28:39;99811.31;;;21.33;38.85
73692;BME280;61996;49.910;35.562;2022-12-18T11:31:44;99813.53;;;21.38;38.79
73692;BME280;61996;49.910;35.562;2022-12-18T11:34:49;99818.66;;;21.31;38.78
73692;BME280;61996;49.910;35.562;2022-12-18T11:38:01;99814.97;;;21.32;39.01
73692;BME280;61996;49.910;35.562;2022-12-18T11:41:10;99824.84;;;21.32;38.82
73692;BME280;61996;49.910;35.562;2022-12-18T11:44:18;99829.75;;;21.37;38.88
73692;BME280;61996;49.910;35.562;2022-12-18T11:47:27;99832.72;;;21.33;38.89
73692;BME280;61996;49.910;35.562;2022-12-18T11:50:33;99828.50;;;21.31;38.96
73692;BME280;61996;49.910;35.562;2022-12-18T11:53:40;99839.75;;;21.34;38.81
73692;BME280;61996;49.910;35.562;2022-12-18T11:56:44;99843.28;;;21.35;38.75
73692;BME280;61996;49.910;35.562;2022-12-18T11:59:51;99853.00;;;21.36;38.64
73692;BME280;61996;49.910;35.562;2022-12-18T12:03:13;99854.69;;;21.37;38.83
73692;BME280;61996;49.910;35.562;2022-12-18T12:06:23;99853.13;;;21.34;38.91
73692;BME280;61996;49.910;35.562;2022-12-18T12:09:32;99863.97;;;21.33;38.79
73692;BME280;61996;49.910;35.562;2022-12-18T12:12:44;99864.69;;;21.35;38.77
73692;BME280;61996;49.910;35.562;2022-12-18T12:15:57;99878.06;;;21.35;38.77
73692;BME280;61996;49.910;35.562;2022-12-18T12:19:07;99887.63;;;21.38;38.69
73692;BME280;61996;49.910;35.562;2022-12-18T12:22:18;99882.53;;;21.34;38.85
73692;BME280;61996;49.910;35.562;2022-12-18T12:25:27;99890.38;;;21.46;38.83
73692;BME280;61996;49.910;35.562;2022-12-18T12:28:47;99896.03;;;21.43;38.65
73692;BME280;61996;49.910;35.562;2022-12-18T12:31:58;99891.66;;;21.42;38.78
73692;BME280;61996;49.910;35.562;2022-12-18T12:35:08;99907.88;;;21.40;38.93
73692;BME280;61996;49.910;35.562;2022-12-18T12:38:16;99914.63;;;21.44;38.67
73692;BME280;61996;49.910;35.562;2022-12-18T12:41:21;99924.47;;;21.44;38.85
73692;BME280;61996;49.910;35.562;2022-12-18T12:44:45;99933.19;;;21.46;38.71
73692;BME280;61996;49.910;35.562;2022-12-18T12:47:58;99930.66;;;21.44;38.59
73692;BME280;61996;49.910;35.562;2022-12-18T12:51:02;99930.66;;;21.44;38.83
73692;BME280;61996;49.910;35.562;2022-12-18T12:54:10;99927.84;;;21.46;38.62
73692;BME280;61996;49.910;35.562;2022-12-18T12:57:15;99931.19;;;21.48;38.56
73692;BME280;61996;49.910;35.562;2022-12-18T13:00:27;99934.28;;;21.53;38.66
73692;BME280;61996;49.910;35.562;2022-12-18T13:03:37;99939.22;;;21.48;38.58
73692;BME280;61996;49.910;35.562;2022-12-18T13:06:46;99954.59;;;21.46;38.51
73692;BME280;61996;49.910;35.562;2022-12-18T13:13:15;99948.66;;;21.15;38.87
73692;BME280;61996;49.910;35.562;2022-12-18T13:16:25;99952.44;;;21.22;38.83
73692;BME280;61996;49.910;35.562;2022-12-18T13:19:32;99960.44;;;21.22;38.54
73692;BME280;61996;49.910;35.562;2022-12-18T13:22:35;99961.88;;;21.16;39.10
73692;BME280;61996;49.910;35.562;2022-12-18T13:25:39;99957.50;;;21.15;39.16
73692;BME280;61996;49.910;35.562;2022-12-18T13:28:51;99963.72;;;21.06;39.43
73692;BME280;61996;49.910;35.562;2022-12-18T13:31:59;99969.69;;;20.90;39.79
73692;BME280;61996;49.910;35.562;2022-12-18T13:38:32;99975.03;;;20.90;39.76
73692;BME280;61996;49.910;35.562;2022-12-18T13:41:36;99986.28;;;20.84;39.45
73692;BME280;61996;49.910;35.562;2022-12-18T13:44:39;99991.09;;;20.80;39.56
73692;BME280;61996;49.910;35.562;2022-12-18T13:47:42;99992.34;;;20.76;39.71
73692;BME280;61996;49.910;35.562;2022-12-18T13:50:48;100003.72;;;20.78;39.91
73692;BME280;61996;49.910;35.562;2022-12-18T13:53:53;100006.28;;;20.70;40.52
73692;BME280;61996;49.910;35.562;2022-12-18T13:56:56;100006.84;;;20.55;40.34
73692;BME280;61996;49.910;35.562;2022-12-18T14:00:14;100017.25;;;20.48;40.06
73692;BME280;61996;49.910;35.562;2022-12-18T14:03:27;100015.00;;;20.53;40.30
73692;BME280;61996;49.910;35.562;2022-12-18T14:06:32;100019.38;;;20.54;40.21
73692;BME280;61996;49.910;35.562;2022-12-18T14:09:39;100026.13;;;20.48;40.32
73692;BME280;61996;49.910;35.562;2022-12-18T14:12:44;100033.00;;;20.61;40.23
73692;BME280;61996;49.910;35.562;2022-12-18T14:16:04;100031.31;;;20.50;40.23
73692;BME280;61996;49.910;35.562;2022-12-18T14:19:08;100035.25;;;20.65;40.21
73692;BME280;61996;49.910;35.562;2022-12-18T14:22:17;100032.69;;;20.44;40.59
73692;BME280;61996;49.910;35.562;2022-12-18T14:25:22;100039.16;;;20.42;40.78
73692;BME280;61996;49.910;35.562;2022-12-18T14:28:25;100049.97;;;20.40;40.81
73692;BME280;61996;49.910;35.562;2022-12-18T14:31:28;100057.28;;;20.38;41.43
73692;BME280;61996;49.910;35.562;2022-12-18T14:34:31;100065.56;;;20.35;41.50
73692;BME280;61996;49.910;35.562;2022-12-18T14:37:34;100066.84;;;20.31;41.14
73692;BME280;61996;49.910;35.562;2022-12-18T14:40:41;100065.41;;;20.27;41.30
73692;BME280;61996;49.910;35.562;2022-12-18T14:43:45;100074.81;;;20.21;41.21
73692;BME280;61996;49.910;35.562;2022-12-18T14:46:49;100074.81;;;20.21;41.11
73692;BME280;61996;49.910;35.562;2022-12-18T14:49:53;100090.00;;;20.21;41.31
73692;BME280;61996;49.910;35.562;2022-12-18T14:52:56;100086.78;;;20.17;41.20
73692;BME280;61996;49.910;35.562;2022-12-18T14:56:00;100095.03;;;20.14;41.13
73692;BME280;61996;49.910;35.562;2022-12-18T14:59:04;100095.56;;;20.08;41.17
73692;BME280;61996;49.910;35.562;2022-12-18T15:02:10;100099.97;;;20.19;40.73
73692;BME280;61996;49.910;35.562;2022-12-18T15:05:20;100091.91;;;20.09;41.22
73692;BME280;61996;49.910;35.562;2022-12-18T15:08:28;100109.34;;;20.04;41.28
73692;BME280;61996;49.910;35.562;2022-12-18T15:11:43;100113.97;;;20.02;41.18
73692;BME280;61996;49.910;35.562;2022-12-18T15:14:46;100116.78;;;20.00;41.20
73692;BME280;61996;49.910;35.562;2022-12-18T15:17:56;100119.44;;;20.00;41.18
73692;BME280;61996;49.910;35.562;2022-12-18T15:20:59;100123.22;;;19.97;41.17
73692;BME280;61996;49.910;35.562;2022-12-18T15:24:13;100133.19;;;19.95;41.17
73692;BME280;61996;49.910;35.562;2022-12-18T15:27:22;100129.81;;;19.93;41.20
73692;BME280;61996;49.910;35.562;2022-12-18T15:30:26;100125.59;;;19.91;41.25
73692;BME280;61996;49.910;35.562;2022-12-18T15:33:30;100132.63;;;19.92;41.17
73692;BME280;61996;49.910;35.562;2022-12-18T15:36:34;100138.94;;;19.91;41.11
73692;BME280;61996;49.910;35.562;2022-12-18T15:39:40;100137.50;;;19.87;41.09
73692;BME280;61996;49.910;35.562;2022-12-18T15:42:45;100142.13;;;19.85;41.10
73692;BME280;61996;49.910;35.562;2022-12-18T15:46:06;100149.16;;;19.86;41.12
73692;BME280;61996;49.910;35.562;2022-12-18T15:49:09;100150.38;;;19.82;41.16
73692;BME280;61996;49.910;35.562;2022-12-18T15:52:12;100150.81;;;19.77;41.03
73692;BME280;61996;49.910;35.562;2022-12-18T15:55:27;100161.63;;;19.76;41.15
73692;BME280;61996;49.910;35.562;2022-12-18T15:58:49;100165.13;;;19.76;40.97
73692;BME280;61996;49.910;35.562;2022-12-18T16:01:53;100165.38;;;19.73;40.93
73692;BME280;61996;49.910;35.562;2022-12-18T16:04:56;100172.06;;;19.88;40.81
73692;BME280;61996;49.910;35.562;2022-12-18T16:07:59;100187.03;;;20.01;40.48
73692;BME280;61996;49.910;35.562;2022-12-18T16:11:02;100184.41;;;20.10;40.26
73692;BME280;61996;49.910;35.562;2022-12-18T16:14:17;100190.78;;;20.19;40.05